Time;durP1;ratioP1;P1;durP2;ratioP2;P2;SDS_P1;SDS_P2;PMS_P1;PMS_P2;Temp;Humidity;BMP_temperature;BMP_pressure;BME280_temperature;BME280_humidity;BME280_pressure;Samples;Min_cycle;Max_cycle;Signal;HPM_P1;HPM_P2
2021/01/17 00:00:53;;;;;;;15.90;7.33;;;;;;;-6.92;51.59;100564.34;1732368;81;21680;-59
2021/01/17 00:03:21;;;;;;;15.63;7.90;;;;;;;-6.90;52.15;100571.34;1731722;82;21523;-54
2021/01/17 00:05:49;;;;;;;15.45;7.28;;;;;;;-6.91;52.25;100565.73;1747355;81;21602;-53
2021/01/17 00:08:18;;;;;;;17.32;7.87;;;;;;;-6.84;52.03;100558.44;1760857;81;21161;-59
2021/01/17 00:10:47;;;;;;;19.62;9.13;;;;;;;-6.90;51.85;100565.33;1761061;80;21582;-53
2021/01/17 00:13:15;;;;;;;18.62;8.83;;;;;;;-6.95;51.90;100556.47;1761721;81;21194;-58
2021/01/17 00:15:42;;;;;;;17.73;7.62;;;;;;;-6.89;52.14;100556.85;1739044;81;21574;-59
2021/01/17 00:18:11;;;;;;;20.23;8.73;;;;;;;-6.88;52.00;100557.34;1757345;81;21139;-59
2021/01/17 00:20:40;;;;;;;20.17;8.80;;;;;;;-6.85;52.04;100558.81;1757581;80;21151;-53
2021/01/17 00:23:08;;;;;;;26.37;9.50;;;;;;;-6.85;51.86;100554.97;1758242;81;21146;-53
2021/01/17 00:25:37;;;;;;;17.30;8.50;;;;;;;-6.89;51.94;100555.58;1752048;80;21190;-58
2021/01/17 00:28:05;;;;;;;18.00;8.20;;;;;;;-6.91;51.89;100557.16;1742387;81;21648;-58
2021/01/17 00:30:33;;;;;;;17.62;8.03;;;;;;;-6.91;51.89;100558.05;1728557;82;21181;-59
2021/01/17 00:33:02;;;;;;;17.55;8.18;;;;;;;-6.90;52.05;100556.36;1730243;81;21135;-59
2021/01/17 00:35:31;;;;;;;17.07;8.10;;;;;;;-6.91;51.83;100557.16;1755470;81;21167;-53
2021/01/17 00:38:01;;;;;;;20.05;8.35;;;;;;;-6.95;51.25;100549.70;1757867;81;21593;-58
2021/01/17 00:40:29;;;;;;;17.82;7.15;;;;;;;-7.01;51.51;100553.16;1759033;80;21591;-53
2021/01/17 00:42:56;;;;;;;22.58;8.33;;;;;;;-7.00;51.86;100564.27;1754386;81;21453;-58
2021/01/17 00:45:26;;;;;;;23.70;11.30;;;;;;;-7.05;52.15;100561.44;1757474;80;21292;-59
2021/01/17 00:47:54;;;;;;;25.75;10.32;;;;;;;-7.03;51.60;100560.72;1758696;81;21625;-52
2021/01/17 00:50:23;;;;;;;18.17;8.15;;;;;;;-7.02;51.41;100565.05;1758600;80;21288;-59
2021/01/17 00:52:55;;;;;;;19.42;8.95;;;;;;;-7.08;51.04;100573.66;1743634;81;21166;-59
2021/01/17 00:55:25;;;;;;;22.13;9.68;;;;;;;-7.22;50.69;100571.91;1757618;80;21188;-53
2021/01/17 00:57:54;;;;;;;19.92;8.43;;;;;;;-7.33;50.58;100572.52;1758543;81;21602;-58
2021/01/17 01:00:24;;;;;;;18.17;8.35;;;;;;;-7.45;50.26;100572.61;1737437;81;21590;-59
2021/01/17 01:03:02;;;;;;;16.40;8.05;;;;;;;-7.56;50.18;100576.18;1828161;77;22162;-60
2021/01/17 01:05:30;;;;;;;20.25;7.55;;;;;;;-7.70;50.17;100585.12;1790490;79;21195;-59
2021/01/17 01:07:59;;;;;;;19.65;8.58;;;;;;;-7.83;50.33;100579.98;1788620;80;21598;-54
2021/01/17 01:10:26;;;;;;;17.77;8.23;;;;;;;-7.94;50.48;100575.06;1783769;80;21558;-54
2021/01/17 01:12:55;;;;;;;16.65;7.40;;;;;;;-8.02;50.43;100579.19;1781646;80;21146;-59
2021/01/17 01:15:23;;;;;;;15.90;7.00;;;;;;;-8.06;51.10;100581.53;1788452;79;21542;-59
2021/01/17 01:17:51;;;;;;;15.25;6.83;;;;;;;-8.06;50.72;100574.28;1788174;80;21550;-54
2021/01/17 01:20:19;;;;;;;19.57;7.92;;;;;;;-8.08;50.79;100569.05;1783029;80;21175;-54
2021/01/17 01:22:46;;;;;;;17.35;7.45;;;;;;;-8.00;50.34;100573.78;1728712;82;21316;-59
2021/01/17 01:25:14;;;;;;;16.42;6.85;;;;;;;-8.08;50.58;100570.73;1716260;83;21602;-54
2021/01/17 01:27:47;;;;;;;18.50;6.85;;;;;;;-8.09;50.40;100571.11;1715283;82;21645;-54
2021/01/17 01:30:16;;;;;;;13.25;6.53;;;;;;;-8.17;49.78;100558.25;1729242;82;21178;-54
2021/01/17 01:32:46;;;;;;;17.90;8.13;;;;;;;-8.18;50.82;100563.24;1714600;82;21153;-54
2021/01/17 01:35:14;;;;;;;;;;;;;;;-8.16;50.68;100559.99;1688680;84;21609;-59
2021/01/17 01:37:41;;;;;;;14.30;5.15;;;;;;;-8.14;50.73;100560.11;1718741;82;20191;-59
2021/01/17 01:40:11;;;;;;;17.73;7.90;;;;;;;-8.08;49.42;100565.22;1725323;82;21172;-59
2021/01/17 01:42:43;;;;;;;16.17;7.12;;;;;;;-8.18;50.17;100570.91;1738572;82;21582;-59
2021/01/17 01:45:12;;;;;;;22.77;8.38;;;;;;;-8.18;50.66;100567.98;1735776;83;21194;-60
2021/01/17 01:47:40;;;;;;;17.45;7.40;;;;;;;-8.13;50.36;100561.88;1727948;83;21174;-54
2021/01/17 01:50:10;;;;;;;17.75;6.97;;;;;;;-8.18;49.52;100557.76;1691383;84;21655;-59
2021/01/17 01:52:38;;;;;;;16.93;7.40;;;;;;;-8.26;50.39;100560.20;1707802;84;21167;-54
2021/01/17 01:55:08;;;;;;;15.13;7.25;;;;;;;-8.27;50.34;100555.87;1729682;82;21200;-54
2021/01/17 01:57:35;;;;;;;16.55;7.62;;;;;;;-8.26;49.94;100549.57;1721013;83;21198;-60
2021/01/17 02:00:06;;;;;;;16.05;7.17;;;;;;;-8.35;49.58;100557.89;1682007;83;21175;-55
2021/01/17 02:02:45;;;;;;;17.77;8.00;;;;;;;-8.38;50.21;100551.30;1682460;85;21227;-59
2021/01/17 02:05:14;;;;;;;18.52;6.83;;;;;;;-8.45;50.13;100550.42;1692004;83;21207;-54
2021/01/17 02:08:14;;;;;;;15.00;7.08;;;;;;;-8.57;49.72;100555.60;1698437;83;21166;-58
2021/01/17 02:10:42;;;;;;;20.57;8.85;;;;;;;-8.63;50.00;100567.57;1750184;81;21146;-54
2021/01/17 02:13:23;;;;;;;14.10;6.60;;;;;;;-8.67;49.88;100569.42;1749990;81;21146;-53
2021/01/17 02:15:53;;;;;;;21.20;7.47;;;;;;;-8.69;49.89;100570.61;1751004;80;21591;-52
2021/01/17 02:18:21;;;;;;;;;;;;;;;-8.71;49.82;100560.69;1735890;82;21559;-59
2021/01/17 02:20:50;;;;;;;15.25;6.40;;;;;;;-8.74;50.18;100560.84;1748192;82;20150;-54
2021/01/17 02:23:29;;;;;;;18.48;8.13;;;;;;;-8.71;50.42;100564.88;1754912;81;21712;-54
2021/01/17 02:25:56;;;;;;;18.15;7.58;;;;;;;-8.62;50.51;100571.90;1765527;80;21162;-59
2021/01/17 02:28:24;;;;;;;14.93;6.30;;;;;;;-8.53;50.79;100572.90;1746074;82;21645;-54
2021/01/17 02:30:53;;;;;;;15.08;5.55;;;;;;;-8.46;50.65;100576.73;1712631;84;21139;-59
2021/01/17 02:33:29;;;;;;;14.33;6.62;;;;;;;-8.45;50.40;100581.94;1762644;80;21626;-59
2021/01/17 02:36:35;;;;;;;13.05;5.83;;;;;;;-8.44;50.54;100586.26;1747632;81;21188;-59
2021/01/17 02:39:22;;;;;;;14.87;6.42;;;;;;;-8.42;50.55;100582.55;1718648;83;21162;-59
2021/01/17 02:42:01;;;;;;;14.15;5.97;;;;;;;-8.39;50.89;100574.69;1726881;82;21579;-54
2021/01/17 02:44:31;;;;;;;19.95;9.48;;;;;;;-8.34;50.59;100581.77;1756276;81;21134;-53
2021/01/17 02:46:59;;;;;;;19.20;7.37;;;;;;;-8.43;49.23;100579.09;1767871;80;21134;-53
2021/01/17 02:49:28;;;;;;;23.20;8.83;;;;;;;-8.64;49.01;100591.33;1748879;82;21166;-54
2021/01/17 02:51:57;;;;;;;14.90;6.58;;;;;;;-8.78;49.22;100592.03;1685411;84;21164;-59
2021/01/17 02:54:39;;;;;;;18.00;7.85;;;;;;;-8.93;49.04;100600.42;1764260;81;21147;-60
2021/01/17 02:57:09;;;;;;;15.95;7.05;;;;;;;-9.03;49.14;100598.88;1715475;81;21592;-59
2021/01/17 02:59:59;;;;;;;13.95;6.42;;;;;;;-9.15;49.13;100605.69;1730808;81;21122;-54
2021/01/17 03:02:31;;;;;;;11.50;4.62;;;;;;;-9.20;48.69;100603.20;1752852;81;21578;-53
2021/01/17 03:04:59;;;;;;;18.02;7.97;;;;;;;-9.29;49.90;100600.48;1756428;82;21594;-60
2021/01/17 03:07:30;;;;;;;20.10;7.55;;;;;;;-9.34;49.02;100592.90;1694405;83;21197;-53
2021/01/17 03:09:57;;;;;;;16.70;7.53;;;;;;;-9.39;49.01;100595.91;1751051;80;21546;-58
2021/01/17 03:12:25;;;;;;;17.02;7.80;;;;;;;-9.43;48.80;100591.87;1753138;81;21622;-59
2021/01/17 03:14:53;;;;;;;18.77;7.72;;;;;;;-9.49;48.94;100592.70;1768142;80;21115;-54
2021/01/17 03:17:21;;;;;;;18.90;7.20;;;;;;;-9.51;48.87;100594.66;1761051;80;21590;-59
2021/01/17 03:19:49;;;;;;;15.83;6.47;;;;;;;-9.59;49.23;100583.52;1757263;80;21597;-53
2021/01/17 03:22:17;;;;;;;16.55;6.53;;;;;;;-9.58;49.90;100581.47;1775517;81;21296;-60
2021/01/17 03:24:45;;;;;;;21.30;8.03;;;;;;;-9.48;50.17;100577.91;1772199;80;21489;-60
2021/01/17 03:27:13;;;;;;;18.42;7.17;;;;;;;-9.45;49.27;100571.75;1760966;80;21601;-53
2021/01/17 03:29:41;;;;;;;16.15;7.40;;;;;;;-9.50;49.68;100567.12;1723477;82;21588;-53
2021/01/17 03:32:09;;;;;;;14.03;7.45;;;;;;;-9.47;49.33;100574.95;1756556;82;21625;-53
2021/01/17 03:34:37;;;;;;;19.98;7.00;;;;;;;-9.53;48.79;100563.95;1756206;82;21118;-53
2021/01/17 03:37:06;;;;;;;12.63;5.70;;;;;;;-9.65;48.86;100562.69;1759257;80;21566;-59
2021/01/17 03:39:33;;;;;;;15.98;7.97;;;;;;;-9.75;48.63;100567.89;1738196;82;21582;-54
2021/01/17 03:42:01;;;;;;;17.92;7.33;;;;;;;-9.79;49.49;100564.25;1756177;82;21697;-54
2021/01/17 03:44:29;;;;;;;15.28;6.75;;;;;;;-9.83;50.09;100568.98;1747594;80;21596;-53
2021/01/17 03:46:57;;;;;;;15.98;6.55;;;;;;;-9.75;50.40;100565.34;1785373;80;21147;-60
2021/01/17 03:49:25;;;;;;;16.32;7.25;;;;;;;-9.65;50.32;100566.88;1780775;80;21597;-59
2021/01/17 03:51:53;;;;;;;16.82;7.08;;;;;;;-9.64;50.23;100560.64;1777020;80;21566;-59
2021/01/17 03:54:20;;;;;;;14.47;6.85;;;;;;;-9.64;50.04;100562.28;1761111;80;21571;-60
2021/01/17 03:56:48;;;;;;;15.38;6.53;;;;;;;-9.62;50.16;100561.63;1774057;80;21605;-59
2021/01/17 03:59:16;;;;;;;16.93;5.95;;;;;;;-9.53;50.45;100563.08;1756593;82;21182;-59
2021/01/17 04:01:44;;;;;;;15.70;7.22;;;;;;;-9.47;50.64;100558.38;1755332;81;21180;-54
2021/01/17 04:04:12;;;;;;;20.12;9.08;;;;;;;-9.36;50.69;100554.94;1753319;80;21558;-54
2021/01/17 04:06:40;;;;;;;15.08;7.00;;;;;;;-9.29;50.62;100553.73;1762500;80;21162;-54
2021/01/17 04:09:08;;;;;;;15.40;6.78;;;;;;;-9.26;50.46;100555.19;1748891;82;21297;-58
2021/01/17 04:11:36;;;;;;;13.38;5.72;;;;;;;-9.24;50.38;100558.73;1746018;81;21574;-59
2021/01/17 04:14:04;;;;;;;20.40;7.05;;;;;;;-9.25;50.20;100560.78;1752243;81;21134;-59
2021/01/17 04:16:31;;;;;;;16.48;6.97;;;;;;;-9.24;50.15;100557.86;1764771;81;21125;-54
2021/01/17 04:18:59;;;;;;;12.90;6.42;;;;;;;-9.22;50.57;100556.30;1774340;81;21594;-54
2021/01/17 04:21:27;;;;;;;16.00;5.87;;;;;;;-9.18;50.43;100564.27;1767341;80;21635;-60
2021/01/17 04:23:55;;;;;;;14.35;6.35;;;;;;;-9.19;50.62;100557.80;1778764;81;21555;-54
2021/01/17 04:26:23;;;;;;;14.25;6.05;;;;;;;-9.12;50.97;100558.32;1773721;80;21143;-59
2021/01/17 04:28:50;;;;;;;12.80;6.67;;;;;;;-9.08;50.39;100562.36;1774017;81;21586;-53
2021/01/17 04:31:18;;;;;;;12.13;5.75;;;;;;;-9.11;50.18;100554.98;1750417;80;21123;-54
2021/01/17 04:33:46;;;;;;;17.20;7.20;;;;;;;-9.06;50.32;100559.53;1753406;81;21578;-59
2021/01/17 04:36:14;;;;;;;13.13;5.60;;;;;;;-9.13;49.72;100557.82;1774281;80;21587;-58
2021/01/17 04:38:41;;;;;;;14.73;6.40;;;;;;;-9.19;49.62;100557.39;1773997;81;21634;-54
2021/01/17 04:41:13;;;;;;;18.85;7.47;;;;;;;-9.30;49.17;100564.70;1753080;80;21191;-54
2021/01/17 04:43:53;;;;;;;14.13;5.60;;;;;;;-9.41;49.21;100563.55;1761940;81;21559;-53
2021/01/17 04:46:20;;;;;;;26.37;7.83;;;;;;;-9.51;48.56;100566.62;1774016;80;21182;-59
2021/01/17 04:48:48;;;;;;;17.67;7.50;;;;;;;-9.65;48.65;100564.33;1770118;81;21701;-53
2021/01/17 04:51:16;;;;;;;17.82;7.17;;;;;;;-9.76;48.71;100567.39;1748271;82;21671;-59
2021/01/17 04:53:44;;;;;;;17.50;7.70;;;;;;;-9.88;48.65;100573.36;1771782;81;21574;-53
2021/01/17 04:56:30;;;;;;;17.80;7.47;;;;;;;-10.02;48.25;100574.91;1774526;80;21557;-54
2021/01/17 04:59:13;;;;;;;18.67;8.40;;;;;;;-10.19;48.66;100568.98;1746468;80;21143;-54
2021/01/17 05:01:52;;;;;;;22.65;8.53;;;;;;;-10.27;48.75;100572.20;1740692;81;21103;-53
2021/01/17 05:04:44;;;;;;;13.30;5.97;;;;;;;-10.33;48.97;100567.93;1681086;85;21269;-59
2021/01/17 05:07:17;;;;;;;12.13;5.97;;;;;;;-10.37;49.62;100570.64;1706622;82;21155;-53
2021/01/17 05:09:52;;;;;;;11.55;5.10;;;;;;;-10.35;49.93;100569.11;1684010;83;21692;-54
2021/01/17 05:12:19;;;;;;;13.03;5.10;;;;;;;-10.26;50.34;100569.30;1743136;80;21125;-53
2021/01/17 05:14:54;;;;;;;16.82;7.55;;;;;;;-10.11;50.69;100574.22;1707924;83;21570;-53
2021/01/17 05:17:26;;;;;;;12.85;5.60;;;;;;;-10.01;50.67;100562.67;1747772;81;21122;-54
2021/01/17 05:19:54;;;;;;;13.40;5.83;;;;;;;-9.91;50.43;100565.49;1707295;83;21456;-59
2021/01/17 05:22:21;;;;;;;24.87;8.33;;;;;;;-9.89;50.64;100565.63;1742120;82;21570;-59
2021/01/17 05:24:55;;;;;;;14.18;6.33;;;;;;;-9.82;50.53;100559.30;1710019;83;21551;-59
2021/01/17 05:27:22;;;;;;;16.42;6.72;;;;;;;-9.83;49.83;100566.07;1745683;80;21138;-60
2021/01/17 05:29:50;;;;;;;22.13;8.48;;;;;;;-9.87;50.21;100560.25;1707249;83;21599;-60
2021/01/17 05:32:17;;;;;;;16.52;6.80;;;;;;;-9.88;50.06;100562.30;1730609;82;21593;-53
2021/01/17 05:34:45;;;;;;;15.63;6.90;;;;;;;-9.91;49.23;100559.53;1712734;83;21155;-53
2021/01/17 05:37:14;;;;;;;14.40;6.65;;;;;;;-9.99;49.61;100561.53;1737052;81;21159;-60
2021/01/17 05:40:03;;;;;;;20.10;7.95;;;;;;;-10.00;49.79;100561.03;1736670;82;21136;-59
2021/01/17 05:42:39;;;;;;;12.37;5.53;;;;;;;-9.99;49.71;100559.35;1740199;82;21163;-60
2021/01/17 05:45:17;;;;;;;20.80;6.72;;;;;;;-9.95;50.84;100560.98;1742514;81;21752;-60
2021/01/17 05:47:58;;;;;;;13.95;6.40;;;;;;;-9.79;52.25;100560.42;1734525;81;21610;-60
2021/01/17 05:50:29;;;;;;;16.97;6.28;;;;;;;-9.47;54.06;100564.38;1707240;83;21555;-59
2021/01/17 05:53:02;;;;;;;15.85;6.78;;;;;;;-9.15;52.73;100566.16;1755588;80;21163;-59
2021/01/17 05:55:42;;;;;;;18.75;6.95;;;;;;;-9.08;52.00;100570.02;1776998;80;21159;-54
2021/01/17 05:58:31;;;;;;;27.00;9.45;;;;;;;-9.00;52.85;100568.48;1748479;82;21186;-54
2021/01/17 06:01:19;;;;;;;23.18;8.48;;;;;;;-8.84;52.90;100570.45;1747735;81;21243;-54
2021/01/17 06:03:53;;;;;;;21.80;8.25;;;;;;;-8.75;52.73;100569.28;1750530;81;21194;-60
2021/01/17 06:06:32;;;;;;;18.48;7.90;;;;;;;-8.65;52.11;100572.09;1745736;80;21143;-59
2021/01/17 06:09:01;;;;;;;25.10;7.85;;;;;;;-8.65;51.92;100566.98;1700709;84;21293;-59
2021/01/17 06:11:29;;;;;;;19.40;7.95;;;;;;;-8.68;51.99;100574.93;1756202;80;21562;-54
2021/01/17 06:14:02;;;;;;;41.55;15.85;;;;;;;-8.57;51.97;100569.64;1774485;81;21660;-54
2021/01/17 06:16:40;;;;;;;26.02;10.90;;;;;;;-8.56;51.12;100571.04;1748712;81;21638;-60
2021/01/17 06:19:10;;;;;;;22.00;9.88;;;;;;;-8.71;51.11;100568.71;1748163;82;21126;-54
2021/01/17 06:21:38;;;;;;;;;;;;;;;-8.84;51.53;100560.62;1718373;83;21668;-59
2021/01/17 06:24:08;;;;;;;13.90;6.67;;;;;;;-8.89;51.58;100561.97;1706094;84;20484;-54
2021/01/17 06:26:37;;;;;;;21.50;8.25;;;;;;;-9.01;51.99;100567.11;1774391;80;21547;-58
2021/01/17 06:29:09;;;;;;;;;;;;;;;-9.06;52.09;100569.73;1733515;82;21179;-54
2021/01/17 06:31:37;;;;;;;18.15;7.65;;;;;;;-9.13;51.40;100566.75;1712420;84;20174;-60
2021/01/17 06:34:13;;;;;;;17.42;7.62;;;;;;;-9.08;52.16;100573.47;1744070;81;21162;-60
2021/01/17 06:36:43;;;;;;;19.07;8.48;;;;;;;-9.05;52.17;100569.82;1742456;82;21378;-54
2021/01/17 06:39:23;;;;;;;19.82;7.62;;;;;;;-9.11;52.17;100571.97;1754913;80;21131;-60
2021/01/17 06:42:00;;;;;;;20.52;9.23;;;;;;;-9.14;51.86;100577.73;1748003;81;21154;-54
2021/01/17 06:44:29;;;;;;;12.37;5.92;;;;;;;-9.15;51.94;100581.05;1748191;82;21190;-60
2021/01/17 06:46:57;;;;;;;14.75;7.35;;;;;;;-9.14;52.06;100581.95;1683864;84;21658;-54
2021/01/17 06:49:28;;;;;;;20.65;9.25;;;;;;;-9.13;52.45;100585.87;1740924;81;21143;-54
2021/01/17 06:51:57;;;;;;;18.87;7.87;;;;;;;-9.06;52.47;100584.66;1706652;84;21500;-55
2021/01/17 06:54:40;;;;;;;20.77;8.75;;;;;;;-9.04;52.65;100588.17;1683847;85;21627;-59
2021/01/17 06:57:08;;;;;;;22.10;9.30;;;;;;;-8.93;53.34;100598.24;1705206;83;21146;-54
2021/01/17 06:59:48;;;;;;;20.10;8.40;;;;;;;-8.78;53.25;100599.69;1725067;83;21609;-55
2021/01/17 07:02:24;;;;;;;17.10;8.80;;;;;;;-8.67;53.12;100605.15;1718035;83;21595;-54
2021/01/17 07:05:09;;;;;;;17.05;7.15;;;;;;;-8.47;53.00;100605.60;1728365;82;21566;-54
2021/01/17 07:08:21;;;;;;;13.48;7.15;;;;;;;-8.43;51.96;100596.09;1699893;83;21595;-54
2021/01/17 07:10:53;;;;;;;12.98;6.33;;;;;;;-8.49;51.42;100600.81;1706975;83;21641;-59
2021/01/17 07:13:21;;;;;;;15.70;6.15;;;;;;;-8.51;51.76;100600.70;1701130;84;21745;-54
2021/01/17 07:15:49;;;;;;;26.93;9.08;;;;;;;-8.52;52.21;100603.66;1695858;83;21593;-54
2021/01/17 07:18:17;;;;;;;18.30;7.92;;;;;;;-8.47;52.29;100607.75;1700784;83;21174;-59
2021/01/17 07:20:47;;;;;;;19.12;8.55;;;;;;;-8.36;53.07;100593.14;1715002;83;21277;-54
2021/01/17 07:23:18;;;;;;;;;;;;;;;-8.21;52.72;100590.35;1705932;83;21198;-59
2021/01/17 07:25:47;;;;;;;16.95;7.45;;;;;;;-8.13;52.77;100593.41;1702969;83;20161;-55
2021/01/17 07:28:19;;;;;;;15.83;7.53;;;;;;;-8.03;52.72;100593.64;1702634;83;21199;-60
2021/01/17 07:31:05;;;;;;;14.50;6.10;;;;;;;-7.95;51.95;100588.65;1702343;83;21570;-59
2021/01/17 07:33:40;;;;;;;16.23;7.42;;;;;;;-7.95;52.33;100583.54;1698237;83;21175;-55
2021/01/17 07:36:10;;;;;;;16.37;6.87;;;;;;;-7.92;51.74;100587.55;1696341;83;21196;-55
2021/01/17 07:38:46;;;;;;;15.15;7.67;;;;;;;-7.98;51.03;100588.45;1678021;84;21204;-55
2021/01/17 07:41:16;;;;;;;21.07;8.28;;;;;;;-8.04;50.64;100594.42;1680533;84;21195;-55
2021/01/17 07:43:46;;;;;;;19.37;8.65;;;;;;;-8.07;51.17;100598.92;1722187;83;21558;-54
2021/01/17 07:46:17;;;;;;;20.97;9.50;;;;;;;-8.09;50.73;100599.21;1701700;83;21599;-54
2021/01/17 07:48:49;;;;;;;20.57;8.98;;;;;;;-8.12;50.28;100596.86;1701953;84;21228;-54
2021/01/17 07:51:20;;;;;;;21.80;9.68;;;;;;;-8.18;49.78;100600.28;1706770;83;21604;-54
2021/01/17 07:54:27;;;;;;;15.48;6.80;;;;;;;-8.28;49.69;100601.34;1670927;84;21597;-54
2021/01/17 07:56:57;;;;;;;15.85;7.15;;;;;;;-8.34;49.93;100606.03;1698336;84;21697;-59
2021/01/17 07:59:26;;;;;;;17.17;7.85;;;;;;;-8.36;49.72;100611.92;1698682;84;21187;-59
2021/01/17 08:01:56;;;;;;;14.15;6.45;;;;;;;-8.31;50.46;100612.63;1698883;82;21285;-59
2021/01/17 08:04:26;;;;;;;11.15;4.50;;;;;;;-8.23;49.97;100621.29;1756497;81;21613;-60
2021/01/17 08:06:55;;;;;;;21.73;8.93;;;;;;;-8.23;49.51;100614.91;1780316;80;21114;-60
2021/01/17 08:09:46;;;;;;;25.57;10.00;;;;;;;-8.18;49.79;100606.29;1782469;80;21558;-54
2021/01/17 08:12:36;;;;;;;17.52;8.13;;;;;;;-8.15;49.67;100604.31;1756288;82;21147;-60
2021/01/17 08:15:18;;;;;;;15.30;7.53;;;;;;;-8.19;49.24;100612.55;1718848;83;21154;-60
2021/01/17 08:17:46;;;;;;;16.52;7.47;;;;;;;-8.13;50.93;100615.52;1693473;83;21573;-55
2021/01/17 08:20:27;;;;;;;18.15;7.85;;;;;;;-8.05;49.95;100620.76;1709601;82;21146;-54
2021/01/17 08:23:04;;;;;;;24.92;9.28;;;;;;;-7.97;50.79;100638.77;1720115;83;21143;-60
2021/01/17 08:25:55;;;;;;;24.82;8.20;;;;;;;-7.93;50.09;100638.16;1756054;81;21293;-60
2021/01/17 08:31:34;;;;;;;14.93;7.00;;;;;;;-7.85;49.25;100650.56;1808460;77;22218;-54
2021/01/17 08:34:11;;;;;;;29.10;12.25;;;;;;;-7.96;49.24;100658.80;1764868;81;21660;-58
2021/01/17 08:36:42;;;;;;;46.35;16.70;;;;;;;-7.94;48.58;100655.55;1764748;80;21191;-59
2021/01/17 08:39:15;;;;;;;48.92;16.35;;;;;;;-7.98;49.21;100668.93;1750658;81;21606;-58
2021/01/17 08:41:45;;;;;;;29.72;11.15;;;;;;;-8.02;48.42;100669.50;1733404;80;21178;-59
2021/01/17 08:44:14;;;;;;;;;;;;;;;-8.06;49.13;100663.28;1761876;81;21154;-59
2021/01/17 08:46:44;;;;;;;25.20;9.88;;;;;;;-8.01;49.33;100664.89;1744278;81;20471;-59
2021/01/17 08:49:13;;;;;;;20.75;8.83;;;;;;;-7.92;50.35;100660.37;1757615;81;21155;-59
2021/01/17 08:51:41;;;;;;;15.85;7.42;;;;;;;-7.87;49.09;100651.75;1743284;81;21187;-59
2021/01/17 08:54:28;;;;;;;20.82;9.00;;;;;;;-7.89;48.31;100652.03;1757415;81;21186;-59
2021/01/17 08:56:56;;;;;;;19.70;8.95;;;;;;;-7.89;48.57;100663.54;1739654;81;21175;-59
2021/01/17 08:59:34;;;;;;;20.82;7.67;;;;;;;-7.91;49.21;100657.03;1730453;83;21159;-58
2021/01/17 09:02:02;;;;;;;24.98;9.15;;;;;;;-7.83;49.39;100661.77;1730652;81;21182;-59
2021/01/17 09:04:30;;;;;;;16.40;6.90;;;;;;;-7.71;49.66;100661.31;1760273;81;21162;-59
2021/01/17 09:06:57;;;;;;;21.37;9.45;;;;;;;-7.61;49.70;100660.23;1741063;81;21183;-59
2021/01/17 09:09:25;;;;;;;21.17;8.45;;;;;;;-7.57;48.54;100656.22;1739047;81;21213;-59
2021/01/17 09:11:53;;;;;;;22.15;9.10;;;;;;;-7.59;48.59;100660.35;1756181;80;21150;-58
2021/01/17 09:14:26;;;;;;;19.95;8.35;;;;;;;-7.58;48.75;100658.28;1795026;80;21181;-58
2021/01/17 09:17:09;;;;;;;21.68;8.88;;;;;;;-7.50;49.07;100661.83;1743031;81;21426;-59
2021/01/17 09:19:37;;;;;;;18.77;8.45;;;;;;;-7.37;48.91;100652.39;1754252;81;21195;-59
2021/01/17 09:22:07;;;;;;;22.02;9.13;;;;;;;-7.30;48.45;100640.87;1738896;81;21581;-59
2021/01/17 09:24:36;;;;;;;;;;;;;;;-7.28;47.75;100650.81;1733254;83;21729;-59
2021/01/17 09:27:07;;;;;;;19.50;8.50;;;;;;;-7.29;48.43;100650.32;1732265;81;20193;-59
2021/01/17 09:30:02;;;;;;;21.37;9.60;;;;;;;-7.14;48.64;100650.41;1752399;81;21119;-59
2021/01/17 09:32:32;;;;;;;20.72;7.50;;;;;;;-7.14;48.64;100650.41;1703533;83;21822;-58
2021/01/17 09:35:05;;;;;;;13.95;5.22;;;;;;;-7.05;48.86;100659.54;1671873;85;21256;-58
2021/01/17 09:37:35;;;;;;;17.32;8.30;;;;;;;-6.97;48.67;100645.06;1638428;87;21158;-58
2021/01/17 09:40:04;;;;;;;20.85;8.18;;;;;;;-6.92;47.97;100636.00;1648111;85;21199;-58
2021/01/17 09:42:33;;;;;;;21.23;9.37;;;;;;;-6.94;48.45;100632.09;1652477;87;21191;-58
2021/01/17 09:45:05;;;;;;;19.73;8.93;;;;;;;-6.94;48.53;100626.97;1631235;86;21596;-59
2021/01/17 09:47:37;;;;;;;22.40;8.93;;;;;;;-6.90;48.54;100627.65;1626644;84;21212;-59
2021/01/17 09:50:10;;;;;;;20.72;9.18;;;;;;;-6.86;49.16;100629.99;1615094;87;21206;-59
2021/01/17 09:52:45;;;;;;;24.43;8.38;;;;;;;-6.76;48.72;100629.77;1651036;86;21183;-59
2021/01/17 09:55:23;;;;;;;29.15;14.38;;;;;;;-6.70;47.96;100621.98;1618378;86;21220;-59
2021/01/17 09:57:53;;;;;;;26.95;12.90;;;;;;;-6.69;48.39;100618.64;1619987;86;21209;-59
2021/01/17 10:00:22;;;;;;;28.02;11.83;;;;;;;-6.74;47.95;100613.22;1651484;85;21345;-59
2021/01/17 10:02:51;;;;;;;23.77;9.83;;;;;;;-6.78;47.72;100613.81;1642272;86;21174;-59
2021/01/17 10:05:31;;;;;;;22.40;10.40;;;;;;;-6.68;47.69;100614.00;1629924;85;21691;-59
2021/01/17 10:08:02;;;;;;;24.37;11.30;;;;;;;-6.68;47.49;100621.27;1613209;89;21190;-58
2021/01/17 10:10:31;;;;;;;23.45;9.60;;;;;;;-6.61;48.00;100620.86;1614244;87;21202;-59
2021/01/17 10:12:58;;;;;;;20.88;9.73;;;;;;;-6.51;47.61;100618.45;1651639;87;21176;-60
2021/01/17 10:15:26;;;;;;;20.77;9.93;;;;;;;-6.43;47.50;100615.96;1619333;85;21657;-59
2021/01/17 10:17:54;;;;;;;20.02;8.38;;;;;;;-6.42;47.27;100617.73;1644290;87;21883;-59
2021/01/17 10:20:31;;;;;;;19.57;9.18;;;;;;;-6.36;47.14;100620.17;1639462;86;21193;-59
2021/01/17 10:23:07;;;;;;;23.80;11.03;;;;;;;-6.25;47.55;100614.02;1650240;85;21179;-59
2021/01/17 10:25:35;;;;;;;24.12;10.90;;;;;;;-6.12;47.27;100613.06;1620053;87;21184;-59
2021/01/17 10:28:09;;;;;;;22.67;10.93;;;;;;;-5.98;46.97;100611.27;1656481;86;21167;-59
2021/01/17 10:30:40;;;;;;;23.18;11.45;;;;;;;-5.86;46.65;100615.83;1651605;85;21207;-59
2021/01/17 10:33:15;;;;;;;22.37;10.68;;;;;;;-5.74;46.71;100619.91;1662119;85;21149;-59
2021/01/17 10:35:48;;;;;;;22.32;9.85;;;;;;;-5.60;46.19;100618.98;1655252;85;21153;-58
2021/01/17 10:38:21;;;;;;;15.08;7.42;;;;;;;-5.58;46.32;100623.81;1658884;86;21203;-58
2021/01/17 10:40:49;;;;;;;15.90;8.43;;;;;;;-5.47;46.49;100628.67;1661368;85;21220;-58
2021/01/17 10:43:32;;;;;;;20.48;9.73;;;;;;;-5.36;46.42;100623.75;1656477;86;21619;-58
2021/01/17 10:46:16;;;;;;;18.40;8.63;;;;;;;-5.27;45.94;100613.11;1660635;85;21668;-59
2021/01/17 10:49:10;;;;;;;22.30;9.30;;;;;;;-5.27;46.09;100608.84;1639953;86;21732;-59
2021/01/17 10:51:51;;;;;;;22.35;10.55;;;;;;;-5.22;46.23;100607.83;1661625;85;21147;-59
2021/01/17 10:54:25;;;;;;;17.65;7.78;;;;;;;-5.05;46.29;100598.86;1631156;88;21603;-60
2021/01/17 10:56:53;;;;;;;15.83;8.60;;;;;;;-5.08;45.34;100593.18;1603736;88;21201;-59
2021/01/17 10:59:25;;;;;;;20.45;8.85;;;;;;;-5.08;45.71;100594.46;1631463;86;21190;-55
2021/01/17 11:01:53;;;;;;;21.45;10.23;;;;;;;-5.01;45.45;100589.25;1599153;88;22085;-53
2021/01/17 11:04:21;;;;;;;21.68;9.00;;;;;;;-4.86;45.10;100578.95;1603177;88;21203;-53
2021/01/17 11:06:49;;;;;;;18.80;8.58;;;;;;;-4.88;45.38;100564.72;1603378;88;21751;-53
2021/01/17 11:09:17;;;;;;;17.15;8.43;;;;;;;-4.88;45.38;100564.72;1591741;88;21211;-53
2021/01/17 11:11:48;;;;;;;18.77;9.28;;;;;;;-4.87;45.22;100561.77;1599600;87;21631;-53
2021/01/17 11:14:24;;;;;;;15.50;6.85;;;;;;;-4.85;45.13;100562.32;1617221;88;21193;-58
2021/01/17 11:16:54;;;;;;;19.98;9.13;;;;;;;-4.82;44.90;100561.20;1595389;87;21194;-58
2021/01/17 11:19:40;;;;;;;16.32;8.30;;;;;;;-4.86;44.49;100560.55;1597748;88;21213;-58
2021/01/17 11:22:09;;;;;;;17.90;8.25;;;;;;;-4.91;44.54;100561.12;1629900;88;21714;-58
2021/01/17 11:24:41;;;;;;;14.80;7.40;;;;;;;-4.91;45.00;100561.12;1622147;88;21197;-58
2021/01/17 11:27:12;;;;;;;18.27;8.68;;;;;;;-4.80;44.83;100551.89;1618821;86;21186;-58
2021/01/17 11:29:41;;;;;;;16.42;8.30;;;;;;;-4.78;44.29;100553.23;1586018;88;21230;-58
2021/01/17 11:32:10;;;;;;;18.87;8.50;;;;;;;-4.85;44.51;100541.77;1627726;88;21222;-58
2021/01/17 11:34:40;;;;;;;18.90;7.97;;;;;;;-4.81;44.51;100542.42;1616246;89;21720;-58
2021/01/17 11:37:10;;;;;;;19.55;9.13;;;;;;;-4.72;45.05;100547.14;1628443;87;21166;-58
2021/01/17 11:39:38;;;;;;;21.15;8.78;;;;;;;-4.70;43.73;100545.55;1659659;86;21176;-58
2021/01/17 11:42:19;;;;;;;;;;;;;;;-4.75;43.69;100540.56;1661954;86;21169;-58
2021/01/17 11:44:46;;;;;;;20.02;8.30;;;;;;;-4.82;43.37;100540.66;1659943;85;20163;-58